createdAt,value
2023-05-22T00:00:32.743Z,24.08
2023-05-22T00:03:03.367Z,22.15
2023-05-22T00:05:34.422Z,20.05
2023-05-22T00:08:04.743Z,24.15
2023-05-22T00:10:33.263Z,24.23
2023-05-22T00:13:01.700Z,24.40
2023-05-22T00:15:30.221Z,24.42
2023-05-22T00:17:58.869Z,24.27
2023-05-22T00:20:28.697Z,28.08
2023-05-22T00:22:57.916Z,25.25
2023-05-22T00:25:26.372Z,23.13
2023-05-22T00:27:55.151Z,25.92
2023-05-22T00:30:23.598Z,30.08
2023-05-22T00:32:52.067Z,30.65
2023-05-22T00:35:21.126Z,29.85
2023-05-22T00:37:50.974Z,33.10
2023-05-22T00:40:19.777Z,29.48
2023-05-22T00:42:48.261Z,33.70
2023-05-22T00:45:16.914Z,35.55
2023-05-22T00:47:46.336Z,27.65
2023-05-22T00:50:14.889Z,30.67
2023-05-22T00:52:46.499Z,32.40
2023-05-22T00:55:16.881Z,31.27
2023-05-22T00:57:46.072Z,34.85
2023-05-22T01:00:16.744Z,27.25
2023-05-22T01:02:45.345Z,32.17
2023-05-22T01:05:17.984Z,31.20
2023-05-22T01:07:46.843Z,37.83
2023-05-22T01:10:16.852Z,33.33
2023-05-22T01:12:52.941Z,31.70
2023-05-22T01:15:27.826Z,30.27
2023-05-22T01:18:11.053Z,33.78
2023-05-22T01:20:44.303Z,38.38
2023-05-22T01:23:46.966Z,32.38
2023-05-22T01:26:32.866Z,31.80
2023-05-22T01:31:46.218Z,35.58
2023-05-22T01:34:17.095Z,35.17
2023-05-22T01:36:47.817Z,33.10
2023-05-22T01:39:17.137Z,30.50
2023-05-22T01:41:47.840Z,32.22
2023-05-22T01:44:16.426Z,30.70
2023-05-22T01:46:46.195Z,36.03
2023-05-22T01:49:14.684Z,33.67
2023-05-22T01:51:52.707Z,35.17
2023-05-22T01:54:26.644Z,31.30
2023-05-22T01:57:02.710Z,30.23
2023-05-22T01:59:35.663Z,35.83
2023-05-22T02:02:07.761Z,33.17
2023-05-22T02:04:40.037Z,34.53
2023-05-22T02:07:12.850Z,31.48
2023-05-22T02:09:43.758Z,31.67
2023-05-22T02:12:14.597Z,35.50
2023-05-22T02:14:44.205Z,34.58
2023-05-22T02:17:14.335Z,35.60
2023-05-22T02:19:44.443Z,32.17
2023-05-22T02:22:14.254Z,33.90
2023-05-22T02:24:45.002Z,35.13
2023-05-22T02:27:14.189Z,32.10
2023-05-22T02:29:43.139Z,34.78
2023-05-22T02:32:11.563Z,32.72
2023-05-22T02:34:42.012Z,36.53
2023-05-22T02:37:10.435Z,31.45
2023-05-22T02:39:38.884Z,34.47
2023-05-22T02:42:08.003Z,37.08
2023-05-22T02:44:36.454Z,36.03
2023-05-22T02:47:05.694Z,32.38
2023-05-22T02:49:34.199Z,33.03
2023-05-22T02:52:04.297Z,34.78
2023-05-22T02:54:32.988Z,35.00
2023-05-22T02:57:02.736Z,36.45
2023-05-22T02:59:31.625Z,31.60
2023-05-22T03:02:00.177Z,35.22
2023-05-22T03:04:29.545Z,31.77
2023-05-22T03:06:58.098Z,39.58
2023-05-22T03:09:28.614Z,33.90
2023-05-22T03:11:57.086Z,35.70
2023-05-22T03:14:25.913Z,36.03
2023-05-22T03:16:55.625Z,38.70
2023-05-22T03:19:25.148Z,35.20
2023-05-22T03:21:54.126Z,35.33
2023-05-22T03:24:23.773Z,38.78
2023-05-22T03:26:53.585Z,37.55
2023-05-22T03:29:34.576Z,36.45
2023-05-22T03:32:04.532Z,33.92
2023-05-22T03:34:33.472Z,43.05
2023-05-22T03:37:03.442Z,37.15
2023-05-22T03:39:32.843Z,40.50
2023-05-22T03:42:08.895Z,40.65
2023-05-22T03:44:37.533Z,41.42
2023-05-22T03:47:07.506Z,41.17
2023-05-22T03:49:36.073Z,41.55
2023-05-22T03:52:07.422Z,40.65
2023-05-22T03:54:36.392Z,37.60
2023-05-22T03:57:06.570Z,41.55
2023-05-22T03:59:36.526Z,41.05
2023-05-22T04:02:07.857Z,42.22
2023-05-22T04:04:38.403Z,40.92
2023-05-22T04:07:08.410Z,42.90
2023-05-22T04:10:03.525Z,39.80
2023-05-22T04:12:32.095Z,45.38
2023-05-22T04:15:01.978Z,41.30
2023-05-22T04:17:35.711Z,43.30
2023-05-22T04:20:07.398Z,44.70
2023-05-22T04:22:36.395Z,42.03
2023-05-22T04:25:05.297Z,44.22
2023-05-22T04:27:34.222Z,43.45
2023-05-22T04:30:04.499Z,42.30
2023-05-22T04:32:33.320Z,39.85
2023-05-22T04:35:03.469Z,38.53
2023-05-22T04:37:32.572Z,43.40
2023-05-22T04:40:05.750Z,43.80
2023-05-22T04:42:34.453Z,42.10
2023-05-22T04:45:04.554Z,43.90
2023-05-22T04:47:33.225Z,44.33
2023-05-22T04:50:07.925Z,46.65
2023-05-22T04:52:37.333Z,41.75
2023-05-22T04:55:08.626Z,44.65
2023-05-22T04:57:37.201Z,43.65
2023-05-22T05:00:12.728Z,44.33
2023-05-22T05:02:42.407Z,39.80
2023-05-22T05:05:11.187Z,42.15
2023-05-22T05:07:40.783Z,46.78
2023-05-22T05:10:10.585Z,39.78
2023-05-22T05:12:39.194Z,44.88
2023-05-22T05:15:11.000Z,42.17
2023-05-22T05:17:39.650Z,40.78
2023-05-22T05:20:10.430Z,38.70
2023-05-22T05:22:40.291Z,39.13
2023-05-22T05:25:11.543Z,39.92
2023-05-22T05:27:40.949Z,34.88
2023-05-22T05:30:12.667Z,38.05
2023-05-22T05:32:59.802Z,35.83
2023-05-22T05:35:36.646Z,34.80
2023-05-22T05:38:10.415Z,38.40
2023-05-22T05:40:42.130Z,39.35
2023-05-22T05:43:13.986Z,43.95
2023-05-22T05:45:44.705Z,36.95
2023-05-22T05:48:13.345Z,41.50
2023-05-22T05:50:45.143Z,38.40
2023-05-22T05:53:13.697Z,44.05
2023-05-22T05:55:46.757Z,42.00
2023-05-22T05:58:15.747Z,37.65
2023-05-22T06:00:57.273Z,43.25
2023-05-22T06:03:26.642Z,42.95
2023-05-22T06:06:06.065Z,38.78
2023-05-22T06:08:54.461Z,43.92
2023-05-22T06:11:29.288Z,35.83
2023-05-22T06:13:59.324Z,38.50
2023-05-22T06:16:31.040Z,36.40
2023-05-22T06:19:00.435Z,41.45
2023-05-22T06:21:29.410Z,35.28
2023-05-22T06:23:58.701Z,32.80
2023-05-22T06:26:27.637Z,36.22
2023-05-22T06:28:56.730Z,32.75
2023-05-22T06:31:26.214Z,36.03
2023-05-22T06:33:59.161Z,30.73
2023-05-22T06:36:27.823Z,31.98
2023-05-22T06:38:57.125Z,32.38
2023-05-22T06:41:43.880Z,31.70
2023-05-22T06:44:14.676Z,30.60
2023-05-22T06:46:43.247Z,30.08
2023-05-22T06:49:20.567Z,32.42
2023-05-22T06:51:53.100Z,31.95
2023-05-22T06:54:22.390Z,29.60
2023-05-22T06:56:57.496Z,32.03
2023-05-22T06:59:28.742Z,30.60
2023-05-22T07:02:07.094Z,26.70
2023-05-22T07:05:06.877Z,26.42
2023-05-22T07:07:46.695Z,27.48
2023-05-22T07:10:15.315Z,28.40
2023-05-22T07:12:43.856Z,27.83
2023-05-22T07:15:14.440Z,30.25
2023-05-22T07:17:49.384Z,27.80
2023-05-22T07:20:19.628Z,29.23
2023-05-22T07:23:09.115Z,26.33
2023-05-22T07:25:39.383Z,31.92
2023-05-22T07:28:08.969Z,34.42
2023-05-22T07:30:43.758Z,29.55
2023-05-22T07:33:12.837Z,32.30
2023-05-22T07:35:43.174Z,31.73
2023-05-22T07:38:11.639Z,31.45
2023-05-22T07:40:44.686Z,29.92
2023-05-22T07:43:15.225Z,30.60
2023-05-22T07:45:44.722Z,33.58
2023-05-22T07:48:16.417Z,32.88
2023-05-22T07:50:48.014Z,36.70
2023-05-22T07:53:17.252Z,38.72
2023-05-22T07:55:48.433Z,37.53
2023-05-22T07:58:17.435Z,38.85
2023-05-22T08:00:47.983Z,42.50
2023-05-22T08:03:17.790Z,39.78
2023-05-22T08:05:48.133Z,40.75
2023-05-22T08:08:16.896Z,41.85
2023-05-22T08:11:01.948Z,41.33
2023-05-22T08:13:32.351Z,38.63
2023-05-22T08:16:01.497Z,40.72
2023-05-22T08:18:30.650Z,42.75
2023-05-22T08:21:01.317Z,40.72
2023-05-22T08:23:30.033Z,40.80
2023-05-22T08:25:59.018Z,43.30
2023-05-22T08:28:27.912Z,36.38
2023-05-22T08:30:56.605Z,43.95
2023-05-22T08:33:25.192Z,41.38
2023-05-22T08:35:53.955Z,43.53
2023-05-22T08:38:24.062Z,46.53
2023-05-22T08:40:55.591Z,42.88
2023-05-22T08:43:25.079Z,44.58
2023-05-22T08:45:57.850Z,45.28
2023-05-22T08:48:31.349Z,46.40
2023-05-22T08:51:03.536Z,44.03
2023-05-22T08:53:36.669Z,42.72
2023-05-22T08:56:08.459Z,49.75
2023-05-22T08:58:38.424Z,43.33
2023-05-22T09:01:07.439Z,44.03
2023-05-22T09:03:37.317Z,45.65
2023-05-22T09:06:10.541Z,40.75
2023-05-22T09:08:42.783Z,43.50
2023-05-22T09:11:12.528Z,42.58
2023-05-22T09:13:41.686Z,41.75
2023-05-22T09:16:11.515Z,41.42
2023-05-22T09:18:41.445Z,38.25
2023-05-22T09:21:25.918Z,39.95
2023-05-22T09:24:02.343Z,43.88
2023-05-22T09:26:32.848Z,42.15
2023-05-22T09:29:01.710Z,39.58
2023-05-22T09:31:30.730Z,46.63
2023-05-22T09:33:59.524Z,41.30
2023-05-22T09:36:33.426Z,45.63
2023-05-22T09:39:04.928Z,39.17
2023-05-22T09:41:36.549Z,40.95
2023-05-22T09:44:13.670Z,45.33
2023-05-22T09:46:42.815Z,44.40
2023-05-22T09:49:14.183Z,44.80
2023-05-22T09:51:47.592Z,44.80
2023-05-22T09:54:19.867Z,46.47
2023-05-22T09:56:50.776Z,46.40
2023-05-22T09:59:23.505Z,47.85
2023-05-22T10:01:52.742Z,48.03
2023-05-22T10:04:23.472Z,45.75
2023-05-22T10:06:53.867Z,44.55
2023-05-22T10:09:30.572Z,46.55
2023-05-22T10:12:04.021Z,51.15
2023-05-22T10:14:33.021Z,46.13
2023-05-22T10:17:02.997Z,45.38
2023-05-22T10:19:33.156Z,42.67
2023-05-22T10:22:02.013Z,47.90
2023-05-22T10:24:32.457Z,47.80
2023-05-22T10:27:01.487Z,45.92
2023-05-22T10:29:35.961Z,39.67
2023-05-22T10:32:10.701Z,46.93
2023-05-22T10:35:00.404Z,48.55
2023-05-22T10:37:42.082Z,45.70
2023-05-22T10:40:15.830Z,46.13
2023-05-22T10:42:45.182Z,45.70
2023-05-22T10:45:14.265Z,43.10
2023-05-22T10:47:43.317Z,44.25
2023-05-22T10:50:13.237Z,44.15
2023-05-22T10:52:42.032Z,43.55
2023-05-22T10:55:13.152Z,41.60
2023-05-22T10:57:41.623Z,44.20
2023-05-22T11:00:13.017Z,37.15
2023-05-22T11:02:43.525Z,39.20
2023-05-22T11:05:37.194Z,42.33
2023-05-22T11:08:37.623Z,40.92
2023-05-22T11:11:14.580Z,39.88
2023-05-22T11:13:44.032Z,40.83
2023-05-22T11:16:12.582Z,41.17
2023-05-22T11:18:41.366Z,43.25
2023-05-22T11:21:13.776Z,42.60
2023-05-22T11:23:42.798Z,42.35
2023-05-22T11:26:27.734Z,40.28
2023-05-22T11:28:56.668Z,43.35
2023-05-22T11:31:26.392Z,42.78
2023-05-22T11:33:55.658Z,41.53
2023-05-22T11:36:25.167Z,41.28
2023-05-22T11:38:58.608Z,39.75
2023-05-22T11:41:34.172Z,41.97
2023-05-22T11:44:03.434Z,43.20
2023-05-22T11:46:31.914Z,46.22
2023-05-22T11:49:00.817Z,41.67
2023-05-22T11:51:31.056Z,46.70
2023-05-22T11:53:59.609Z,40.28
2023-05-22T11:56:32.913Z,45.08
2023-05-22T11:59:01.886Z,44.05
2023-05-22T12:01:30.652Z,45.25
2023-05-22T12:03:59.305Z,41.65
2023-05-22T12:06:28.026Z,39.25
2023-05-22T12:08:56.518Z,42.72
2023-05-22T12:11:27.242Z,40.78
2023-05-22T12:14:02.993Z,45.65
2023-05-22T12:16:36.420Z,39.95
2023-05-22T12:19:08.595Z,39.15
2023-05-22T12:21:39.182Z,41.55
2023-05-22T12:24:07.892Z,40.97
2023-05-22T12:26:38.198Z,41.00
2023-05-22T12:29:08.022Z,42.50
2023-05-22T12:31:38.468Z,41.13
2023-05-22T12:34:08.894Z,41.13
2023-05-22T12:36:40.330Z,39.53
2023-05-22T12:39:10.284Z,40.80
2023-05-22T12:41:39.148Z,39.33
2023-05-22T12:44:09.218Z,40.60
2023-05-22T12:46:37.934Z,46.28
2023-05-22T12:49:06.668Z,45.00
2023-05-22T12:51:59.891Z,43.85
2023-05-22T12:54:28.348Z,42.15
2023-05-22T12:56:56.720Z,44.13
2023-05-22T12:59:26.482Z,47.17
2023-05-22T13:01:57.712Z,41.58
2023-05-22T13:04:26.249Z,41.22
2023-05-22T13:06:54.870Z,50.35
2023-05-22T13:09:23.367Z,43.03
2023-05-22T13:11:52.252Z,47.08
2023-05-22T13:14:21.250Z,44.33
2023-05-22T13:16:51.048Z,45.10
2023-05-22T13:19:19.569Z,48.42
2023-05-22T13:21:48.113Z,58.38
2023-05-22T13:24:16.538Z,46.75
2023-05-22T13:26:45.004Z,47.45
2023-05-22T13:29:13.496Z,47.00
2023-05-22T13:31:42.084Z,48.45
2023-05-22T13:34:12.159Z,52.53
2023-05-22T13:36:42.914Z,49.40
2023-05-22T13:39:11.488Z,50.03
2023-05-22T13:41:40.113Z,48.20
2023-05-22T13:44:08.720Z,47.05
2023-05-22T13:46:40.773Z,48.10
2023-05-22T13:49:11.051Z,48.47
2023-05-22T13:51:39.694Z,46.22
2023-05-22T13:54:08.145Z,50.67
2023-05-22T13:56:36.577Z,46.55
2023-05-22T13:59:07.700Z,44.70
2023-05-22T14:01:37.803Z,51.65
2023-05-22T14:04:07.333Z,51.83
2023-05-22T14:06:37.436Z,55.17
2023-05-22T14:09:07.883Z,53.08
2023-05-22T14:11:36.490Z,48.80
2023-05-22T14:14:05.155Z,51.85
2023-05-22T14:16:33.644Z,48.17
2023-05-22T14:19:02.575Z,54.22
2023-05-22T14:21:31.193Z,53.88
2023-05-22T14:24:02.489Z,49.05
2023-05-22T14:26:31.266Z,48.38
2023-05-22T14:28:59.799Z,50.47
2023-05-22T14:31:30.088Z,45.70
2023-05-22T14:33:58.490Z,46.63
2023-05-22T14:36:27.013Z,44.88
2023-05-22T14:38:56.909Z,47.28
2023-05-22T14:41:27.231Z,46.42
2023-05-22T14:43:55.646Z,46.83
2023-05-22T14:46:24.310Z,45.47
2023-05-22T14:48:52.694Z,43.75
2023-05-22T14:51:21.929Z,44.97
2023-05-22T14:53:50.328Z,49.78
2023-05-22T14:56:18.724Z,47.25
2023-05-22T14:58:48.575Z,47.63
2023-05-22T15:01:17.094Z,45.58
2023-05-22T15:03:45.510Z,47.83
2023-05-22T15:06:14.204Z,47.35
2023-05-22T15:08:42.631Z,47.55
2023-05-22T15:11:11.201Z,52.63
2023-05-22T15:13:39.608Z,50.47
2023-05-22T15:16:09.427Z,47.47
2023-05-22T15:18:37.915Z,46.17
2023-05-22T15:21:06.605Z,48.22
2023-05-22T15:23:34.953Z,45.80
2023-05-22T15:26:03.536Z,46.40
2023-05-22T15:28:31.926Z,46.25
2023-05-22T15:31:00.427Z,46.97
2023-05-22T15:33:30.369Z,44.53
2023-05-22T15:35:58.790Z,49.45
2023-05-22T15:38:28.157Z,50.47
2023-05-22T15:40:56.839Z,49.28
2023-05-22T15:43:26.092Z,48.45
2023-05-22T15:45:54.595Z,46.88
2023-05-22T15:48:23.003Z,44.88
2023-05-22T15:50:52.775Z,46.25
2023-05-22T15:53:21.927Z,43.03
2023-05-22T15:55:51.322Z,50.05
2023-05-22T15:58:19.788Z,40.70
2023-05-22T16:00:48.144Z,45.03
2023-05-22T16:03:16.940Z,40.28
2023-05-22T16:05:46.881Z,40.42
2023-05-22T16:08:19.333Z,41.47
2023-05-22T16:10:48.012Z,40.47
2023-05-22T16:13:16.497Z,41.25
2023-05-22T16:15:45.440Z,38.80
2023-05-22T16:18:13.926Z,35.70
2023-05-22T16:20:42.364Z,41.03
2023-05-22T16:23:10.739Z,36.42
2023-05-22T16:25:40.704Z,36.58
2023-05-22T16:28:10.955Z,36.97
2023-05-22T16:30:39.946Z,42.13
2023-05-22T16:33:08.756Z,38.53
2023-05-22T16:35:37.236Z,41.70
2023-05-22T16:38:06.951Z,36.70
2023-05-22T16:40:36.586Z,36.22
2023-05-22T16:43:06.419Z,42.45
2023-05-22T16:45:38.069Z,36.83
2023-05-22T16:48:08.155Z,37.33
2023-05-22T16:50:36.870Z,36.10
2023-05-22T16:53:05.297Z,38.58
2023-05-22T16:55:34.046Z,34.50
2023-05-22T16:58:02.547Z,33.83
2023-05-22T17:00:32.355Z,36.38
2023-05-22T17:03:02.927Z,40.80
2023-05-22T17:05:31.890Z,36.25
2023-05-22T17:08:00.622Z,31.92
2023-05-22T17:10:29.103Z,33.47
2023-05-22T17:12:57.671Z,36.55
2023-05-22T17:15:26.093Z,36.15
2023-05-22T17:17:56.373Z,34.70
2023-05-22T17:20:25.011Z,35.95
2023-05-22T17:22:53.436Z,33.38
2023-05-22T17:25:22.151Z,32.53
2023-05-22T17:27:51.252Z,33.30
2023-05-22T17:30:21.014Z,32.50
2023-05-22T17:32:50.002Z,34.88
2023-05-22T17:35:20.396Z,36.67
2023-05-22T17:37:48.939Z,35.85
2023-05-22T17:40:18.257Z,33.97
2023-05-22T17:42:47.169Z,33.65
2023-05-22T17:45:15.852Z,34.95
2023-05-22T17:47:44.241Z,37.03
2023-05-22T17:50:15.215Z,32.75
2023-05-22T17:52:45.142Z,34.88
2023-05-22T17:55:13.899Z,35.38
2023-05-22T17:57:42.631Z,33.22
2023-05-22T18:00:12.500Z,33.10
2023-05-22T18:02:41.317Z,36.85
2023-05-22T18:05:11.072Z,34.83
2023-05-22T18:07:59.360Z,32.67
2023-05-22T18:10:28.176Z,36.50
2023-05-22T18:12:59.464Z,39.40
2023-05-22T18:15:27.847Z,34.70
2023-05-22T18:17:57.098Z,37.92
2023-05-22T18:20:28.182Z,33.38
2023-05-22T18:22:56.685Z,38.83
2023-05-22T18:25:26.783Z,35.80
2023-05-22T18:27:55.516Z,40.05
2023-05-22T18:30:23.950Z,35.08
2023-05-22T18:32:52.867Z,41.25
2023-05-22T18:35:21.607Z,39.95
2023-05-22T18:37:50.188Z,38.22
2023-05-22T18:40:18.792Z,36.47
2023-05-22T18:42:48.649Z,42.40
2023-05-22T18:45:17.158Z,41.03
2023-05-22T18:47:46.175Z,36.38
2023-05-22T18:50:14.620Z,37.97
2023-05-22T18:52:47.225Z,41.10
2023-05-22T18:55:15.778Z,38.45
2023-05-22T18:57:44.261Z,38.17
2023-05-22T19:00:14.870Z,40.67
2023-05-22T19:02:47.653Z,37.97
2023-05-22T19:05:16.221Z,37.72
2023-05-22T19:07:44.749Z,44.13
2023-05-22T19:10:13.594Z,41.20
2023-05-22T19:12:42.511Z,39.45
2023-05-22T19:15:15.314Z,39.92
2023-05-22T19:17:44.023Z,39.17
2023-05-22T19:20:13.182Z,43.30
2023-05-22T19:22:41.607Z,43.25
2023-05-22T19:25:10.643Z,46.20
2023-05-22T19:27:39.524Z,42.05
2023-05-22T19:30:09.174Z,41.97
2023-05-22T19:32:39.224Z,43.35
2023-05-22T19:35:08.715Z,41.33
2023-05-22T19:37:39.059Z,42.30
2023-05-22T19:40:09.583Z,40.30
2023-05-22T19:42:38.864Z,44.10
2023-05-22T19:45:08.565Z,41.05
2023-05-22T19:47:37.233Z,42.58
2023-05-22T19:50:08.311Z,42.45
2023-05-22T19:52:37.055Z,41.92
2023-05-22T19:55:06.593Z,41.15
2023-05-22T19:57:35.028Z,45.10
2023-05-22T20:00:06.841Z,42.50
2023-05-22T20:02:35.592Z,42.30
2023-05-22T20:05:13.006Z,51.28
2023-05-22T20:10:11.811Z,45.70
2023-05-22T20:12:40.624Z,46.22
2023-05-22T20:15:15.242Z,48.25
2023-05-22T20:17:47.597Z,45.17
2023-05-22T20:20:20.013Z,44.83
2023-05-22T20:22:48.833Z,48.90
2023-05-22T20:25:17.357Z,49.83
2023-05-22T20:27:46.121Z,51.55
2023-05-22T20:30:14.892Z,48.58
2023-05-22T20:32:46.220Z,49.13
2023-05-22T20:35:18.675Z,47.40
2023-05-22T20:37:48.779Z,54.20
2023-05-22T20:40:17.413Z,51.30
2023-05-22T20:42:47.499Z,52.65
2023-05-22T20:45:16.352Z,53.10
2023-05-22T20:47:45.114Z,51.90
2023-05-22T20:50:13.938Z,49.28
2023-05-22T20:52:42.685Z,60.58
2023-05-22T20:55:15.624Z,58.30
2023-05-22T20:57:44.143Z,56.65
2023-05-22T21:00:14.260Z,57.92
2023-05-22T21:02:42.919Z,58.60
2023-05-22T21:05:11.417Z,58.13
2023-05-22T21:07:40.205Z,54.40
2023-05-22T21:10:09.725Z,59.88
2023-05-22T21:12:39.692Z,57.92
2023-05-22T21:15:12.088Z,54.33
2023-05-22T21:17:40.624Z,59.67
2023-05-22T21:20:09.888Z,56.28
2023-05-22T21:22:38.344Z,63.47
2023-05-22T21:25:08.687Z,60.53
2023-05-22T21:27:37.221Z,58.80
2023-05-22T21:30:14.424Z,62.55
2023-05-22T21:32:43.303Z,62.83
2023-05-22T21:35:11.855Z,62.03
2023-05-22T21:37:40.681Z,64.00
2023-05-22T21:40:10.030Z,63.63
2023-05-22T21:42:46.695Z,58.85
2023-05-22T21:45:17.070Z,59.90
2023-05-22T21:47:45.603Z,71.75
2023-05-22T21:50:15.108Z,68.97
2023-05-22T21:52:44.203Z,64.25
2023-05-22T21:55:14.707Z,69.80
2023-05-22T21:57:43.254Z,68.82
2023-05-22T22:00:12.974Z,82.28
2023-05-22T22:02:44.165Z,69.10
2023-05-22T22:05:12.848Z,78.28
2023-05-22T22:07:41.488Z,78.63
2023-05-22T22:10:12.995Z,75.72
2023-05-22T22:12:41.663Z,86.25
2023-05-22T22:15:11.519Z,72.20
2023-05-22T22:17:40.655Z,74.20
2023-05-22T22:20:15.602Z,72.45
2023-05-22T22:22:44.110Z,75.25
2023-05-22T22:25:14.500Z,80.97
2023-05-22T22:27:43.155Z,70.65
2023-05-22T22:30:11.955Z,74.03
2023-05-22T22:32:40.381Z,76.97
2023-05-22T22:35:11.149Z,83.07
2023-05-22T22:37:41.222Z,77.00
2023-05-22T22:40:10.616Z,72.18
2023-05-22T22:42:39.356Z,65.30
2023-05-22T22:45:09.688Z,67.50
2023-05-22T22:47:38.237Z,63.15
2023-05-22T22:50:07.684Z,65.20
2023-05-22T22:52:37.694Z,64.10
2023-05-22T22:55:11.351Z,67.07
2023-05-22T22:57:43.028Z,72.18
2023-05-22T23:00:13.646Z,73.05
2023-05-22T23:02:42.440Z,69.38
2023-05-22T23:05:11.369Z,71.97
2023-05-22T23:07:40.125Z,69.38
2023-05-22T23:10:10.889Z,71.70
2023-05-22T23:12:39.299Z,78.00
2023-05-22T23:15:10.951Z,70.47
2023-05-22T23:17:39.416Z,75.93
2023-05-22T23:20:09.886Z,75.00
2023-05-22T23:22:40.182Z,79.72
2023-05-22T23:25:10.715Z,82.97
2023-05-22T23:27:39.400Z,77.68
2023-05-22T23:30:09.217Z,81.72
2023-05-22T23:32:37.682Z,79.43
2023-05-22T23:35:09.456Z,79.57
2023-05-22T23:37:38.314Z,93.45
2023-05-22T23:40:09.018Z,89.15
2023-05-22T23:42:38.771Z,84.03
2023-05-22T23:45:08.225Z,89.65
2023-05-22T23:47:36.596Z,80.85
2023-05-22T23:50:06.003Z,77.20
2023-05-22T23:52:34.617Z,80.80
2023-05-22T23:55:03.349Z,78.13
2023-05-22T23:57:32.116Z,70.70
